Etusivu
METAR-TAF:

METAR-TAF

Lentoasemat :

Helsingborg, Ruotsi

Ängelholm-Helsingborgin lentoasema

Leveyspiiri: 56-17-46N, Pituuspiiri: 012-50-50E, korkeus merenpinnasta: 21 m

Tämänhetkinen sää

Tämä raportti tehtiin 18 minuuttia sitten, kello 01.20 UTC
Tuuli 3 kn idästä/kaakosta
Lämpötila 0°C
Kosteus 93%
Ilmanpaine 1026 hPa
Näkyvyys: 7000 m
utua

METAR: ESTA 180120Z AUTO 11003KT 7000 BR OVC039/// M00/M01 Q1026

Aika: 02:38 (01:38 UTC)

Sääennuste

Tämä raportti tehtiin 14 tuntia ja 45 minuuttia sitten, kello 10.53 UTC
Ennuste voimassa 17. päivästä klo 12 UTC - 17. päivään klo 16 UTC
Tuuli 8 kn luoteesta
Näkyvyys 10 km tai enemmän
Hajonneita pilviä 2000 ft:n korkeudessa

TAF: ESTA 171053Z 1712/1716 32008KT 9999 BKN020

Säähavainnot ja -ennusteet yli 4000 lentoasemalta (METAR- ja TAF-raportit).

Käytössä olevat sääasemat on merkitty karttaan keltaisilla ja punaisilla pisteillä.

Aseta hiiri pisteen päälle nähdäksesi sääaseman nimen.

Klikkaa sitten nähdäksesi säähavainnot ja -ennusteet.

Kartan vaihtaminen: klikkaa mustalla rastilla varustettuja vihreitä pisteitä, niin voit zoomata sisään; viivalla varustettua vihreää pistettä, niin voit zoomata ulos tai vihreitä nuolia, niin pääset viereisille kartoille.


METAR-TAF: